createdAt,value
2018-10-01T00:01:15.059Z,15.00
2018-10-01T00:03:44.263Z,15.00
2018-10-01T00:06:13.743Z,15.00
2018-10-01T00:08:42.920Z,15.10
2018-10-01T00:11:12.623Z,15.00
2018-10-01T00:13:41.871Z,15.00
2018-10-01T00:16:11.068Z,15.10
2018-10-01T00:18:40.370Z,15.10
2018-10-01T00:21:14.935Z,15.10
2018-10-01T00:23:44.248Z,15.10
2018-10-01T00:26:13.435Z,15.00
2018-10-01T00:28:42.598Z,14.80
2018-10-01T00:31:11.812Z,14.70
2018-10-01T00:33:40.996Z,14.70
2018-10-01T00:36:10.186Z,14.70
2018-10-01T00:38:39.755Z,14.50
2018-10-01T00:41:08.935Z,14.40
2018-10-01T00:43:38.132Z,14.30
2018-10-01T00:46:07.368Z,14.20
2018-10-01T00:48:36.792Z,14.10
2018-10-01T00:51:06.034Z,14.10
2018-10-01T00:53:35.244Z,14.10
2018-10-01T00:56:04.431Z,14.00
2018-10-01T00:58:34.093Z,14.10
2018-10-01T01:01:03.535Z,14.10
2018-10-01T01:03:32.724Z,14.20
2018-10-01T01:06:01.908Z,14.10
2018-10-01T01:08:31.099Z,13.90
2018-10-01T01:11:00.744Z,13.80
2018-10-01T01:13:29.935Z,13.80
2018-10-01T01:15:59.192Z,13.60
2018-10-01T01:18:28.448Z,13.60
2018-10-01T01:20:57.679Z,13.60
2018-10-01T01:23:27.228Z,13.50
2018-10-01T01:25:56.403Z,13.50
2018-10-01T01:28:25.635Z,13.60
2018-10-01T01:30:54.924Z,13.70
2018-10-01T01:33:24.108Z,13.80
2018-10-01T01:35:53.300Z,13.80
2018-10-01T01:38:22.490Z,13.80
2018-10-01T01:40:51.752Z,13.80
2018-10-01T01:43:20.907Z,13.70
2018-10-01T01:45:50.175Z,13.50
2018-10-01T01:48:19.368Z,13.40
2018-10-01T01:50:48.577Z,13.30
2018-10-01T01:53:17.851Z,13.20
2018-10-01T01:55:47.085Z,13.20
2018-10-01T01:58:16.279Z,13.20
2018-10-01T02:00:46.075Z,13.30
2018-10-01T02:03:15.247Z,13.30
2018-10-01T02:05:44.436Z,13.20
2018-10-01T02:08:14.087Z,13.00
2018-10-01T02:10:43.268Z,13.00
2018-10-01T02:13:12.451Z,13.00
2018-10-01T02:15:41.743Z,13.10
2018-10-01T02:18:11.076Z,13.10
2018-10-01T02:20:40.257Z,13.30
2018-10-01T02:23:09.472Z,13.30
2018-10-01T02:25:38.678Z,13.20
2018-10-01T02:28:07.852Z,13.10
2018-10-01T02:30:37.493Z,13.10
2018-10-01T02:33:06.743Z,13.30
2018-10-01T02:35:35.924Z,13.20
2018-10-01T02:38:05.175Z,13.20
2018-10-01T02:40:34.410Z,13.10
2018-10-01T02:43:03.591Z,13.00
2018-10-01T02:45:32.792Z,13.00
2018-10-01T02:48:01.968Z,13.10
2018-10-01T02:50:31.164Z,13.10
2018-10-01T02:53:05.639Z,13.10
2018-10-01T02:55:34.819Z,13.10
2018-10-01T02:58:04.011Z,13.00
2018-10-01T03:00:33.228Z,12.80
2018-10-01T03:03:02.774Z,12.80
2018-10-01T03:05:32.174Z,12.80
2018-10-01T03:08:01.397Z,12.70
2018-10-01T03:10:30.591Z,12.70
2018-10-01T03:12:59.762Z,12.70
2018-10-01T03:15:29.216Z,12.70
2018-10-01T03:17:58.566Z,12.60
2018-10-01T03:20:27.782Z,12.50
2018-10-01T03:22:57.000Z,12.60
2018-10-01T03:25:26.202Z,12.50
2018-10-01T03:27:55.404Z,12.40
2018-10-01T03:30:24.609Z,12.40
2018-10-01T03:32:53.788Z,12.40
2018-10-01T03:35:22.952Z,12.30
2018-10-01T03:37:52.328Z,12.30
2018-10-01T03:40:21.519Z,12.20
2018-10-01T03:42:51.140Z,12.30
2018-10-01T03:45:20.348Z,12.60
2018-10-01T03:47:49.870Z,12.60
2018-10-01T03:50:19.065Z,12.70
2018-10-01T03:52:48.348Z,12.60
2018-10-01T03:55:17.529Z,12.50
2018-10-01T03:57:46.715Z,12.50
2018-10-01T04:00:16.323Z,12.40
2018-10-01T04:02:45.516Z,12.40
2018-10-01T04:05:15.128Z,12.30
2018-10-01T04:07:44.327Z,12.30
2018-10-01T04:10:13.496Z,12.30
2018-10-01T04:12:42.671Z,12.30
2018-10-01T04:15:11.870Z,12.30
2018-10-01T04:17:41.049Z,12.40
2018-10-01T04:20:10.224Z,12.60
2018-10-01T04:22:40.659Z,12.50
2018-10-01T04:25:10.835Z,12.40
2018-10-01T04:27:40.020Z,12.30
2018-10-01T04:30:10.993Z,12.30
2018-10-01T04:32:40.212Z,12.30
2018-10-01T04:35:09.839Z,12.30
2018-10-01T04:37:39.062Z,12.20
2018-10-01T04:40:08.330Z,12.20
2018-10-01T04:42:37.507Z,12.10
2018-10-01T04:45:06.844Z,12.10
2018-10-01T04:47:36.012Z,12.10
2018-10-01T04:50:05.779Z,12.10
2018-10-01T04:52:35.052Z,12.00
2018-10-01T04:55:04.708Z,12.00
2018-10-01T04:57:33.912Z,12.10
2018-10-01T05:00:03.263Z,12.20
2018-10-01T05:02:32.460Z,12.20
2018-10-01T05:05:01.645Z,12.10
2018-10-01T05:07:31.440Z,12.10
2018-10-01T05:10:00.655Z,12.00
2018-10-01T05:12:29.891Z,12.00
2018-10-01T05:14:59.109Z,11.90
2018-10-01T05:17:28.278Z,11.90
2018-10-01T05:19:57.468Z,11.90
2018-10-01T05:22:26.749Z,11.90
2018-10-01T05:24:56.474Z,11.90
2018-10-01T05:27:25.902Z,11.90
2018-10-01T05:29:55.307Z,11.90
2018-10-01T05:32:24.512Z,11.90
2018-10-01T05:34:53.855Z,12.00
2018-10-01T05:37:23.171Z,12.00
2018-10-01T05:39:52.330Z,12.00
2018-10-01T05:42:21.504Z,12.10
2018-10-01T05:44:50.743Z,12.10
2018-10-01T05:47:19.928Z,11.90
2018-10-01T05:49:49.099Z,11.90
2018-10-01T05:52:18.639Z,12.10
2018-10-01T05:54:47.788Z,12.10
2018-10-01T05:57:16.962Z,12.10
2018-10-01T05:59:46.171Z,12.10
2018-10-01T06:02:15.428Z,12.10
2018-10-01T06:04:44.624Z,12.20
2018-10-01T06:07:13.859Z,12.10
2018-10-01T06:09:43.416Z,12.20
2018-10-01T06:12:12.724Z,12.20
2018-10-01T06:14:42.273Z,12.10
2018-10-01T06:17:11.536Z,12.10
2018-10-01T06:19:40.783Z,12.10
2018-10-01T06:22:10.024Z,12.00
2018-10-01T06:24:39.208Z,12.00
2018-10-01T06:27:08.741Z,12.00
2018-10-01T06:29:37.940Z,12.00
2018-10-01T06:32:07.144Z,12.00
2018-10-01T06:34:36.355Z,12.00
2018-10-01T06:37:11.401Z,12.10
2018-10-01T06:39:45.230Z,12.10
2018-10-01T06:42:17.325Z,12.20
2018-10-01T06:44:49.264Z,12.20
2018-10-01T06:47:24.279Z,12.30
2018-10-01T06:49:54.515Z,12.30
2018-10-01T06:52:29.191Z,12.30
2018-10-01T06:55:01.660Z,12.40
2018-10-01T06:57:31.953Z,12.40
2018-10-01T07:00:03.603Z,12.40
2018-10-01T07:02:34.564Z,12.40
2018-10-01T07:05:05.981Z,12.50
2018-10-01T07:07:38.778Z,12.60
2018-10-01T07:10:09.841Z,12.70
2018-10-01T07:12:39.358Z,12.70
2018-10-01T07:15:08.551Z,12.60
2018-10-01T07:17:38.796Z,12.70
2018-10-01T07:20:08.068Z,12.70
2018-10-01T07:22:37.311Z,12.80
2018-10-01T07:25:06.749Z,12.80
2018-10-01T07:27:36.215Z,12.90
2018-10-01T07:30:07.414Z,12.90
2018-10-01T07:32:36.810Z,13.00
2018-10-01T07:35:06.622Z,13.10
2018-10-01T07:37:35.851Z,13.10
2018-10-01T07:40:05.077Z,13.10
2018-10-01T07:42:34.476Z,13.10
2018-10-01T07:45:03.844Z,13.20
2018-10-01T07:47:33.152Z,13.20
2018-10-01T07:50:07.360Z,13.20
2018-10-01T07:52:36.810Z,13.20
2018-10-01T07:55:06.090Z,13.10
2018-10-01T07:57:35.654Z,13.20
2018-10-01T08:00:04.966Z,13.30
2018-10-01T08:02:34.256Z,13.30
2018-10-01T08:05:03.487Z,13.40
2018-10-01T08:07:32.924Z,13.40
2018-10-01T08:10:02.404Z,13.30
2018-10-01T08:12:38.312Z,13.40
2018-10-01T08:15:11.225Z,13.40
2018-10-01T08:17:46.140Z,13.50
2018-10-01T08:20:18.139Z,13.60
2018-10-01T08:22:55.781Z,13.80
2018-10-01T08:25:31.747Z,13.90
2018-10-01T08:28:02.890Z,13.90
2018-10-01T08:30:39.654Z,13.90
2018-10-01T08:33:10.727Z,14.00
2018-10-01T08:38:53.359Z,14.10
2018-10-01T08:41:28.216Z,14.10
2018-10-01T08:44:05.125Z,14.10
2018-10-01T08:46:35.755Z,14.20
2018-10-01T08:50:17.485Z,14.30
2018-10-01T08:52:53.511Z,14.40
2018-10-01T08:55:24.402Z,14.30
2018-10-01T08:57:53.607Z,14.50
2018-10-01T09:00:37.613Z,14.40
2018-10-01T09:03:11.593Z,14.40
2018-10-01T09:05:47.021Z,14.30
2018-10-01T09:08:21.355Z,14.30
2018-10-01T09:10:57.731Z,14.40
2018-10-01T09:13:31.489Z,14.60
2018-10-01T09:16:04.815Z,14.60
2018-10-01T09:18:40.876Z,14.60
2018-10-01T09:21:13.602Z,14.80
2018-10-01T09:23:43.815Z,14.80
2018-10-01T09:26:14.999Z,14.80
2018-10-01T09:28:44.494Z,14.80
2018-10-01T09:31:14.736Z,14.70
2018-10-01T09:33:46.968Z,14.70
2018-10-01T09:36:17.120Z,14.80
2018-10-01T09:38:50.083Z,14.90
2018-10-01T09:41:23.249Z,15.00
2018-10-01T09:43:54.650Z,15.10
2018-10-01T09:46:25.269Z,15.20
2018-10-01T09:48:55.647Z,15.40
2018-10-01T09:51:30.982Z,15.50
2018-10-01T09:54:02.425Z,15.70
2018-10-01T09:56:32.634Z,15.70
2018-10-01T09:59:06.959Z,15.70
2018-10-01T10:01:39.155Z,15.70
2018-10-01T10:04:09.311Z,15.60
2018-10-01T10:06:38.627Z,15.60
2018-10-01T10:09:10.084Z,15.70
2018-10-01T10:11:39.571Z,15.80
2018-10-01T10:14:09.479Z,15.80
2018-10-01T10:16:38.842Z,15.70
2018-10-01T10:19:08.206Z,15.70
2018-10-01T10:21:37.435Z,15.70
2018-10-01T10:24:09.024Z,15.70
2018-10-01T10:26:38.711Z,15.70
2018-10-01T10:29:08.116Z,15.80
2018-10-01T10:31:37.533Z,15.90
2018-10-01T10:34:08.100Z,16.10
2018-10-01T10:36:37.356Z,15.90
2018-10-01T10:39:10.025Z,15.70
2018-10-01T10:41:39.275Z,15.70
2018-10-01T10:44:08.498Z,16.00
2018-10-01T10:46:37.659Z,16.20
2018-10-01T10:49:07.009Z,16.20
2018-10-01T10:51:36.440Z,16.10
2018-10-01T10:54:12.189Z,16.10
2018-10-01T10:56:41.566Z,16.30
2018-10-01T10:59:10.847Z,17.00
2018-10-01T11:01:40.171Z,17.60
2018-10-01T11:04:09.434Z,17.90
2018-10-01T11:06:42.325Z,18.00
2018-10-01T11:09:15.406Z,18.10
2018-10-01T11:11:48.672Z,17.90
2018-10-01T11:14:25.722Z,18.60
2018-10-01T11:16:54.877Z,19.00
2018-10-01T11:19:24.203Z,19.20
2018-10-01T11:22:01.097Z,19.00
2018-10-01T11:24:33.719Z,19.10
2018-10-01T11:27:03.381Z,19.00
2018-10-01T11:29:32.876Z,19.10
2018-10-01T11:32:02.273Z,19.10
2018-10-01T11:34:31.744Z,19.00
2018-10-01T11:37:00.819Z,18.90
2018-10-01T11:39:30.065Z,18.50
2018-10-01T11:41:59.459Z,18.20
2018-10-01T11:44:28.746Z,17.90
2018-10-01T11:46:59.812Z,17.80
2018-10-01T11:49:30.844Z,18.70
2018-10-01T11:52:00.382Z,19.80
2018-10-01T11:54:29.974Z,19.90
2018-10-01T11:57:00.365Z,19.80
2018-10-01T11:59:29.639Z,19.90
2018-10-01T12:01:59.180Z,19.70
2018-10-01T12:04:28.843Z,19.70
2018-10-01T12:06:58.040Z,20.00
2018-10-01T12:09:27.635Z,20.50
2018-10-01T12:11:57.736Z,21.70
2018-10-01T12:14:27.367Z,22.80
2018-10-01T12:16:57.536Z,22.80
2018-10-01T12:19:27.334Z,22.00
2018-10-01T12:21:56.518Z,21.20
2018-10-01T12:24:25.728Z,20.40
2018-10-01T12:26:55.045Z,19.70
2018-10-01T12:29:24.408Z,19.10
2018-10-01T12:31:54.294Z,18.80
2018-10-01T12:34:23.792Z,18.90
2018-10-01T12:36:53.015Z,18.90
2018-10-01T12:39:22.411Z,19.10
2018-10-01T12:41:51.752Z,19.10
2018-10-01T12:44:22.112Z,18.70
2018-10-01T12:46:52.962Z,18.60
2018-10-01T12:49:22.451Z,18.60
2018-10-01T12:51:51.636Z,18.60
2018-10-01T12:54:20.900Z,18.60
2018-10-01T12:56:50.237Z,18.50
2018-10-01T12:59:19.495Z,18.70
2018-10-01T13:01:48.647Z,19.00
2018-10-01T13:04:17.988Z,18.80
2018-10-01T13:06:47.289Z,18.50
2018-10-01T13:09:16.429Z,18.20
2018-10-01T13:11:45.636Z,18.00
2018-10-01T13:14:14.820Z,17.70
2018-10-01T13:16:44.223Z,17.60
2018-10-01T13:19:13.403Z,17.40
2018-10-01T13:21:42.588Z,17.50
2018-10-01T13:24:11.876Z,17.80
2018-10-01T13:26:41.504Z,18.20
2018-10-01T13:29:10.757Z,18.10
2018-10-01T13:31:39.987Z,17.70
2018-10-01T13:34:09.195Z,17.60
2018-10-01T13:36:38.425Z,17.90
2018-10-01T13:39:09.424Z,19.00
2018-10-01T13:41:39.143Z,20.10
2018-10-01T13:44:08.567Z,21.10
2018-10-01T13:46:37.841Z,21.80
2018-10-01T13:49:07.064Z,22.10
2018-10-01T13:51:36.280Z,22.50
2018-10-01T13:54:05.763Z,22.80
2018-10-01T13:56:34.920Z,23.10
2018-10-01T13:59:04.737Z,23.30
2018-10-01T14:01:34.514Z,23.60
2018-10-01T14:04:04.267Z,23.90
2018-10-01T14:06:33.619Z,24.30
2018-10-01T14:09:03.071Z,24.90
2018-10-01T14:11:32.309Z,25.50
2018-10-01T14:14:01.606Z,25.50
2018-10-01T14:16:31.747Z,24.40
2018-10-01T14:19:03.277Z,23.00
2018-10-01T14:21:32.696Z,21.90
2018-10-01T14:24:02.067Z,21.10
2018-10-01T14:26:31.500Z,20.40
2018-10-01T14:29:00.751Z,19.90
2018-10-01T14:31:29.927Z,19.50
2018-10-01T14:33:59.111Z,19.20
2018-10-01T14:36:28.374Z,19.00
2018-10-01T14:38:58.088Z,18.90
2018-10-01T14:41:27.496Z,19.50
2018-10-01T14:43:57.015Z,20.50
2018-10-01T14:46:26.892Z,21.90
2018-10-01T14:48:56.272Z,23.00
2018-10-01T14:51:25.471Z,23.60
2018-10-01T14:53:54.731Z,23.70
2018-10-01T14:56:23.955Z,23.60
2018-10-01T14:58:54.331Z,23.70
2018-10-01T15:01:24.323Z,23.60
2018-10-01T15:03:53.853Z,23.20
2018-10-01T15:06:23.544Z,23.10
2018-10-01T15:08:53.920Z,22.50
2018-10-01T15:11:23.150Z,22.10
2018-10-01T15:13:52.467Z,21.70
2018-10-01T15:16:21.662Z,21.00
2018-10-01T15:18:51.276Z,20.60
2018-10-01T15:21:20.459Z,20.20
2018-10-01T15:23:49.815Z,20.10
2018-10-01T15:26:18.979Z,20.70
2018-10-01T15:28:59.120Z,21.70
2018-10-01T15:31:32.215Z,22.60
2018-10-01T15:34:05.686Z,23.30
2018-10-01T15:36:40.560Z,23.40
2018-10-01T15:39:13.809Z,23.40
2018-10-01T15:41:46.226Z,22.40
2018-10-01T15:44:20.212Z,21.40
2018-10-01T15:46:51.410Z,20.70
2018-10-01T15:49:23.496Z,20.00
2018-10-01T15:51:54.364Z,19.60
2018-10-01T15:54:23.524Z,19.30
2018-10-01T15:56:52.733Z,19.10
2018-10-01T15:59:21.924Z,18.90
2018-10-01T16:01:51.105Z,18.60
2018-10-01T16:04:20.723Z,18.30
2018-10-01T16:06:49.891Z,18.20
2018-10-01T16:09:19.068Z,17.00
2018-10-01T16:11:48.268Z,16.30
2018-10-01T16:14:17.467Z,15.80
2018-10-01T16:16:46.660Z,15.60
2018-10-01T16:19:16.303Z,15.40
2018-10-01T16:21:45.500Z,15.20
2018-10-01T16:24:14.681Z,15.10
2018-10-01T16:26:44.440Z,15.00
2018-10-01T16:29:13.764Z,15.00
2018-10-01T16:31:43.065Z,15.00
2018-10-01T16:34:12.461Z,15.00
2018-10-01T16:36:42.952Z,15.10
2018-10-01T16:39:13.252Z,14.80
2018-10-01T16:41:42.731Z,14.60
2018-10-01T16:44:12.029Z,14.40
2018-10-01T16:46:41.292Z,14.40
2018-10-01T16:49:12.875Z,14.30
2018-10-01T16:51:42.476Z,14.20
2018-10-01T16:54:12.912Z,14.20
2018-10-01T16:56:42.220Z,14.20
2018-10-01T16:59:11.408Z,14.20
2018-10-01T17:01:40.597Z,14.20
2018-10-01T17:04:12.098Z,14.20
2018-10-01T17:06:41.291Z,14.20
2018-10-01T17:09:12.739Z,14.20
2018-10-01T17:11:42.043Z,14.10
2018-10-01T17:14:11.220Z,14.20
2018-10-01T17:16:40.416Z,14.20
2018-10-01T17:19:09.607Z,14.20
2018-10-01T17:21:38.940Z,14.20
2018-10-01T17:24:08.155Z,14.30
2018-10-01T17:26:37.784Z,14.30
2018-10-01T17:29:07.156Z,14.20
2018-10-01T17:31:36.375Z,14.20
2018-10-01T17:34:06.031Z,14.00
2018-10-01T17:36:35.673Z,14.10
2018-10-01T17:39:07.832Z,14.20
2018-10-01T17:41:37.131Z,14.10
2018-10-01T17:44:06.639Z,14.00
2018-10-01T17:46:36.496Z,14.00
2018-10-01T17:49:05.731Z,14.00
2018-10-01T17:51:34.961Z,13.80
2018-10-01T17:54:04.179Z,13.70
2018-10-01T17:56:33.347Z,13.80
2018-10-01T17:59:02.572Z,13.70
2018-10-01T18:01:31.779Z,13.60
2018-10-01T18:04:01.568Z,13.40
2018-10-01T18:06:30.736Z,13.30
2018-10-01T18:09:00.210Z,13.30
2018-10-01T18:11:29.387Z,13.50
2018-10-01T18:13:58.568Z,13.50
2018-10-01T18:16:27.756Z,13.50
2018-10-01T18:18:56.936Z,13.40
2018-10-01T18:21:26.829Z,13.40
2018-10-01T18:23:56.111Z,13.30
2018-10-01T18:26:25.243Z,13.30
2018-10-01T18:28:54.680Z,13.30
2018-10-01T18:31:24.219Z,13.10
2018-10-01T18:33:53.419Z,13.20
2018-10-01T18:36:22.604Z,13.20
2018-10-01T18:38:51.807Z,13.20
2018-10-01T18:41:21.004Z,13.10
2018-10-01T18:43:50.390Z,13.10
2018-10-01T18:46:19.454Z,13.10
2018-10-01T18:48:48.632Z,13.20
2018-10-01T18:51:17.818Z,13.30
2018-10-01T18:53:47.338Z,13.30
2018-10-01T18:56:16.491Z,13.30
2018-10-01T18:58:45.663Z,13.30
2018-10-01T19:01:14.866Z,13.30
2018-10-01T19:03:44.028Z,13.30
2018-10-01T19:06:13.244Z,13.20
2018-10-01T19:08:42.408Z,13.20
2018-10-01T19:11:11.607Z,13.10
2018-10-01T19:13:40.811Z,13.10
2018-10-01T19:16:10.204Z,13.20
2018-10-01T19:18:39.366Z,13.30
2018-10-01T19:21:08.567Z,13.30
2018-10-01T19:23:38.332Z,13.40
2018-10-01T19:26:07.592Z,13.20
2018-10-01T19:28:36.751Z,12.80
2018-10-01T19:31:05.991Z,12.30
2018-10-01T19:33:35.188Z,12.10
2018-10-01T19:36:04.442Z,11.90
2018-10-01T19:38:34.125Z,11.90
2018-10-01T19:41:03.364Z,11.80
2018-10-01T19:43:32.472Z,11.60
2018-10-01T19:46:01.703Z,11.70
2018-10-01T19:48:30.878Z,11.60
2018-10-01T19:51:00.389Z,11.60
2018-10-01T19:53:29.547Z,11.50
2018-10-01T19:55:58.743Z,11.40
2018-10-01T19:58:27.915Z,11.40
2018-10-01T20:00:57.200Z,11.50
2018-10-01T20:03:27.253Z,11.50
2018-10-01T20:05:56.335Z,11.40
2018-10-01T20:08:25.528Z,11.30
2018-10-01T20:10:54.810Z,11.40
2018-10-01T20:13:23.987Z,11.50
2018-10-01T20:15:53.188Z,11.50
2018-10-01T20:18:22.359Z,11.40
2018-10-01T20:20:51.601Z,11.30
2018-10-01T20:23:20.804Z,11.30
2018-10-01T20:25:50.859Z,11.20
2018-10-01T20:28:20.109Z,11.20
2018-10-01T20:30:49.218Z,11.20
2018-10-01T20:33:18.382Z,11.10
2018-10-01T20:35:47.640Z,11.10
2018-10-01T20:38:16.932Z,10.90
2018-10-01T20:40:46.086Z,11.00
2018-10-01T20:43:15.256Z,11.10
2018-10-01T20:45:44.705Z,10.90
2018-10-01T20:48:14.121Z,10.90
2018-10-01T20:50:43.283Z,11.00
2018-10-01T20:53:12.533Z,11.00
2018-10-01T20:55:41.672Z,10.90
2018-10-01T20:58:10.883Z,10.80
2018-10-01T21:00:40.107Z,10.80
2018-10-01T21:03:09.283Z,10.80
2018-10-01T21:05:38.464Z,10.80
2018-10-01T21:08:08.033Z,10.80
2018-10-01T21:10:37.395Z,10.70
2018-10-01T21:13:06.612Z,10.70
2018-10-01T21:15:36.231Z,10.60
2018-10-01T21:18:05.584Z,10.50
2018-10-01T21:20:34.792Z,10.40
2018-10-01T21:23:04.012Z,10.40
2018-10-01T21:25:33.220Z,10.50
2018-10-01T21:28:02.806Z,10.60
2018-10-01T21:30:32.348Z,10.70
2018-10-01T21:33:01.512Z,10.70
2018-10-01T21:35:30.978Z,10.80
2018-10-01T21:38:00.191Z,10.70
2018-10-01T21:40:29.387Z,10.70
2018-10-01T21:42:58.580Z,10.60
2018-10-01T21:45:27.804Z,10.50
2018-10-01T21:47:56.976Z,10.50
2018-10-01T21:50:26.156Z,10.30
2018-10-01T21:52:55.603Z,10.20
2018-10-01T21:55:24.800Z,10.20
2018-10-01T21:57:54.093Z,10.10
2018-10-01T22:00:23.351Z,10.10
2018-10-01T22:02:52.527Z,10.00
2018-10-01T22:05:21.707Z,9.90
2018-10-01T22:07:50.895Z,9.90
2018-10-01T22:10:20.067Z,9.90
2018-10-01T22:12:49.236Z,9.90
2018-10-01T22:15:18.884Z,9.90
2018-10-01T22:17:48.018Z,10.10
2018-10-01T22:20:17.201Z,10.20
2018-10-01T22:22:46.391Z,10.20
2018-10-01T22:25:15.579Z,10.20
2018-10-01T22:27:44.775Z,10.20
2018-10-01T22:30:14.747Z,10.30
2018-10-01T22:32:44.063Z,10.20
2018-10-01T22:35:13.241Z,10.10
2018-10-01T22:37:42.694Z,10.20
2018-10-01T22:40:12.196Z,10.20
2018-10-01T22:42:41.424Z,10.00
2018-10-01T22:45:10.591Z,9.80
2018-10-01T22:47:39.760Z,9.70
2018-10-01T22:50:08.951Z,9.60
2018-10-01T22:52:38.187Z,9.50
2018-10-01T22:55:07.453Z,9.50
2018-10-01T22:57:36.615Z,9.40
2018-10-01T23:00:05.892Z,9.40
2018-10-01T23:02:35.104Z,9.40
2018-10-01T23:05:04.327Z,9.40
2018-10-01T23:07:33.753Z,9.30
2018-10-01T23:10:03.227Z,9.30
2018-10-01T23:12:32.394Z,9.20
2018-10-01T23:15:01.600Z,9.20
2018-10-01T23:17:30.783Z,9.20
2018-10-01T23:19:59.951Z,9.10
2018-10-01T23:22:29.379Z,9.10
2018-10-01T23:24:58.683Z,9.20
2018-10-01T23:27:27.852Z,9.20
2018-10-01T23:29:57.346Z,9.10
2018-10-01T23:32:26.891Z,9.10
2018-10-01T23:34:56.094Z,9.10
2018-10-01T23:37:25.349Z,9.10
2018-10-01T23:39:54.585Z,9.10
2018-10-01T23:42:23.808Z,9.10
2018-10-01T23:44:53.380Z,9.10
2018-10-01T23:47:22.592Z,9.00
2018-10-01T23:49:51.852Z,9.00
2018-10-01T23:52:21.113Z,8.90
2018-10-01T23:54:50.347Z,8.90
2018-10-01T23:57:19.577Z,8.90
2018-10-01T23:59:48.852Z,8.90
